Welcome to Northern Hawkes Bay. New Zealand.
PWS Header
      nz Flag



Hit Counter


W3C Valid W3C Valid logo


    Wairoa

Select any of the Stations below to visit their websites.










Historic Data from Weather Underground
Select the location of interest below. Wairoa is the default. Please have patience, this Data is slow to load in.
Northern Hawkes Bay Historical Data
Daily Summary for March 5, 2017 Units:  Metric    English   Both
« Previous Day
Next Day »
Daily Weekly Monthly Yearly Custom
  High: Low: Average:
Temperature: 24.4 °C 12.4 °C 18.4 °C
Dew Point: 19.6 °C 11.9 °C 15.6 °C
Humidity: 99% 56% 85%
Wind Speed: 13.4km/h 0.0km/h 3.7km/h
Wind Gust: 20.9km/h - -
Wind- - West
Pressure: 1013.1 hPa 1010.0 hPa -
Precipitation: 0.0 mm    
Historical Graphs
 
 
Tabular Data for March 5, 2017
Time Temperature Dew Point Pressure Wind Wind Speed Wind Gust Humidity Rainfall Rate (Hourly) solar
00:00 23.2 °C 19.2 °C 1010.7 hPa SSW 8.7 km/h 19.5 km/h 78% 0.0 mm 134 W/m2
00:05 22.9 °C 19.3 °C 1010.7 hPa SSW 2.6 km/h 17.2 km/h 80% 0.0 mm 89 W/m2
00:10 22.7 °C 19.3 °C 1010.7 hPa SSW 8.7 km/h 13.4 km/h 81% 0.0 mm 96 W/m2
00:15 22.5 °C 19.3 °C 1011.1 hPa SW 8.7 km/h 14.8 km/h 82% 0.0 mm 95 W/m2
00:20 22.4 °C 19.4 °C 1011.1 hPa SW 6.1 km/h 14.8 km/h 83% 0.0 mm 100 W/m2
00:25 22.6 °C 19.6 °C 1011.1 hPa SSW 9.7 km/h 14.8 km/h 83% 0.0 mm 108 W/m2
00:30 22.6 °C 19.4 °C 1011.4 hPa South 5.0 km/h 14.8 km/h 82% 0.0 mm 106 W/m2
00:35 22.8 °C 19.4 °C 1011.4 hPa SSW 7.2 km/h 13.4 km/h 81% 0.0 mm 125 W/m2
00:40 22.6 °C 19.0 °C 1011.4 hPa SSW 12.2 km/h 17.2 km/h 80% 0.0 mm 113 W/m2
00:45 22.5 °C 19.1 °C 1011.4 hPa South 7.2 km/h 17.2 km/h 81% 0.0 mm 95 W/m2
00:50 22.2 °C 18.8 °C 1011.4 hPa South 9.7 km/h 17.2 km/h 81% 0.0 mm 82 W/m2
00:55 22.0 °C 19.0 °C 1011.7 hPa South 6.1 km/h 14.8 km/h 83% 0.0 mm 72 W/m2
01:00 22.1 °C 18.9 °C 1011.7 hPa SSW 11.1 km/h 13.4 km/h 82% 0.0 mm 65 W/m2
01:05 21.9 °C 18.9 °C 1011.7 hPa SSW 5.0 km/h 13.4 km/h 83% 0.0 mm 54 W/m2
01:10 21.8 °C 19.0 °C 1011.7 hPa SSW 3.5 km/h 13.4 km/h 84% 0.0 mm 42 W/m2
01:15 22.0 °C 19.2 °C 1011.7 hPa SSW 5.0 km/h 8.7 km/h 84% 0.0 mm 30 W/m2
01:20 21.4 °C 18.8 °C 1011.7 hPa SW 5.0 km/h 8.7 km/h 85% 0.0 mm 23 W/m2
01:25 21.2 °C 18.6 °C 1011.7 hPa SSW 2.6 km/h 8.7 km/h 85% 0.0 mm 19 W/m2
01:30 21.1 °C 18.7 °C 1012.1 hPa SSW 3.5 km/h 7.2 km/h 86% 0.0 mm 15 W/m2
01:35 21.0 °C 18.8 °C 1012.1 hPa SSW 1.1 km/h 7.2 km/h 87% 0.0 mm 13 W/m2
01:40 20.9 °C 18.7 °C 1011.7 hPa SSW 2.6 km/h 7.2 km/h 87% 0.0 mm 7 W/m2
01:45 20.7 °C 18.7 °C 1011.7 hPa Calm   5.0 km/h 88% 0.0 mm 4 W/m2
01:50 20.5 °C 18.4 °C 1012.1 hPa Calm   5.0 km/h 88% 0.0 mm 1 W/m2
01:55 20.1 °C 18.1 °C 1012.1 hPa Calm     88% 0.0 mm 0 W/m2
02:00 20.1 °C 18.2 °C 1012.1 hPa Calm     89% 0.0 mm 0 W/m2
02:05 20.0 °C 18.3 °C 1012.1 hPa Calm     90% 0.0 mm 0 W/m2
02:10 19.9 °C 18.4 °C 1012.4 hPa Calm     91% 0.0 mm 0 W/m2
02:15 19.8 °C 18.3 °C 1012.1 hPa Calm     91% 0.0 mm 0 W/m2
02:20 19.6 °C 18.1 °C 1012.4 hPa Calm   5.0 km/h 91% 0.0 mm 0 W/m2
02:25 19.5 °C 18.2 °C 1012.4 hPa Calm   5.0 km/h 92% 0.0 mm 0 W/m2
02:30 19.4 °C 18.3 °C 1012.1 hPa SW 1.1 km/h 5.0 km/h 93% 0.0 mm 0 W/m2
02:35 19.1 °C 17.9 °C 1012.1 hPa WSW 1.1 km/h 5.0 km/h 93% 0.0 mm 0 W/m2
02:40 19.4 °C 18.4 °C 1012.4 hPa SW 1.1 km/h 5.0 km/h 94% 0.0 mm 0 W/m2
02:45 19.3 °C 18.3 °C 1012.4 hPa Calm   5.0 km/h 94% 0.0 mm 0 W/m2
02:50 19.2 °C 18.2 °C 1012.4 hPa Calm   5.0 km/h 94% 0.0 mm 0 W/m2
02:55 19.1 °C 18.1 °C 1012.4 hPa Calm   2.6 km/h 94% 0.0 mm 0 W/m2
03:00 18.9 °C 18.1 °C 1012.4 hPa Calm   2.6 km/h 95% 0.0 mm 0 W/m2
03:05 18.9 °C 18.1 °C 1012.4 hPa Calm     95% 0.0 mm 0 W/m2
03:10 18.9 °C 18.1 °C 1012.8 hPa Calm     95% 0.0 mm 0 W/m2
03:15 18.7 °C 17.9 °C 1012.4 hPa Calm     95% 0.0 mm 0 W/m2
03:20 18.8 °C 18.0 °C 1012.8 hPa Calm     95% 0.0 mm 0 W/m2
03:25 18.7 °C 17.9 °C 1012.8 hPa Calm     95% 0.0 mm 0 W/m2
03:30 18.6 °C 17.8 °C 1012.8 hPa NW 1.1 km/h 2.6 km/h 95% 0.0 mm 0 W/m2
03:35 18.4 °C 17.6 °C 1012.8 hPa Calm   2.6 km/h 95% 0.0 mm 0 W/m2
03:40 18.5 °C 17.9 °C 1012.8 hPa Calm   2.6 km/h 96% 0.0 mm 0 W/m2
03:45 18.3 °C 17.7 °C 1013.1 hPa Calm     96% 0.0 mm 0 W/m2
03:50 18.2 °C 17.6 °C 1013.1 hPa Calm     96% 0.0 mm 0 W/m2
03:55 18.0 °C 17.4 °C 1013.1 hPa Calm     96% 0.0 mm 0 W/m2
04:00 18.0 °C 17.4 °C 1013.1 hPa Calm   2.6 km/h 96% 0.0 mm 0 W/m2
04:05 17.9 °C 17.1 °C 1013.1 hPa Calm   5.0 km/h 95% 0.0 mm 0 W/m2
04:10 17.9 °C 17.1 °C 1013.1 hPa North 1.1 km/h 5.0 km/h 95% 0.0 mm 0 W/m2
04:15 17.5 °C 16.7 °C 1013.1 hPa Calm   6.1 km/h 95% 0.0 mm 0 W/m2
04:20 17.7 °C 16.9 °C 1013.1 hPa Calm   6.1 km/h 95% 0.0 mm 0 W/m2
04:25 17.6 °C 16.8 °C 1013.1 hPa Calm   2.6 km/h 95% 0.0 mm 0 W/m2
04:30 17.4 °C 16.4 °C 1013.1 hPa Calm     94% 0.0 mm 0 W/m2
04:35 17.3 °C 16.3 °C 1013.1 hPa Calm   1.1 km/h 94% 0.0 mm 0 W/m2
04:40 17.2 °C 16.2 °C 1013.1 hPa Calm   2.6 km/h 94% 0.0 mm 0 W/m2
04:45 17.1 °C 16.1 °C 1013.1 hPa NW 1.1 km/h 5.0 km/h 94% 0.0 mm 0 W/m2
04:50 17.0 °C 16.1 °C 1013.1 hPa NNW 1.1 km/h 5.0 km/h 94% 0.0 mm 0 W/m2
04:55 16.9 °C 16.1 °C 1013.1 hPa Calm   3.5 km/h 95% 0.0 mm 0 W/m2
05:00 16.8 °C 16.0 °C 1013.1 hPa North 1.1 km/h 3.5 km/h 95% 0.0 mm 0 W/m2
05:05 16.7 °C 16.1 °C 1013.1 hPa North 1.1 km/h 3.5 km/h 96% 0.0 mm 0 W/m2
05:10 16.7 °C 16.1 °C 1013.1 hPa North 3.5 km/h 7.2 km/h 96% 0.0 mm 0 W/m2
05:15 16.8 °C 16.2 °C 1012.8 hPa North 3.5 km/h 7.2 km/h 96% 0.0 mm 0 W/m2
05:20 16.7 °C 16.2 °C 1013.1 hPa North 2.6 km/h 7.2 km/h 97% 0.0 mm 0 W/m2
05:25 16.6 °C 16.1 °C 1012.8 hPa NNW 3.5 km/h 7.2 km/h 97% 0.0 mm 0 W/m2
05:30 16.6 °C 16.1 °C 1012.8 hPa NNW 1.1 km/h 7.2 km/h 97% 0.0 mm 0 W/m2
05:35 16.5 °C 16.1 °C 1012.8 hPa NNW 3.5 km/h 7.2 km/h 97% 0.0 mm 0 W/m2
05:40 16.5 °C 16.1 °C 1012.8 hPa NNW 3.5 km/h 7.2 km/h 97% 0.0 mm 0 W/m2
05:45 16.5 °C 16.1 °C 1012.8 hPa NNW 6.1 km/h 7.2 km/h 97% 0.0 mm 0 W/m2
05:50 16.4 °C 15.9 °C 1012.8 hPa NNW 5.0 km/h 9.7 km/h 97% 0.0 mm 0 W/m2
05:55 16.5 °C 16.1 °C 1012.8 hPa NNW 6.1 km/h 9.7 km/h 97% 0.0 mm 0 W/m2
06:00 16.5 °C 16.1 °C 1012.8 hPa NNW 2.6 km/h 9.7 km/h 97% 0.0 mm 0 W/m2
06:05 16.4 °C 15.9 °C 1012.8 hPa NNW 5.0 km/h 9.7 km/h 97% 0.0 mm 0 W/m2
06:10 16.4 °C 15.9 °C 1012.8 hPa NNW 6.1 km/h 9.7 km/h 97% 0.0 mm 0 W/m2
06:15 16.3 °C 15.7 °C 1012.8 hPa NNW 5.0 km/h 9.7 km/h 96% 0.0 mm 0 W/m2
06:20 16.2 °C 15.6 °C 1012.4 hPa NW 5.0 km/h 9.7 km/h 96% 0.0 mm 0 W/m2
06:26 16.0 °C 15.4 °C 1012.8 hPa NW 3.5 km/h 9.7 km/h 96% 0.0 mm 0 W/m2
06:31 15.8 °C 15.3 °C 1012.8 hPa NW 3.5 km/h 9.7 km/h 97% 0.0 mm 0 W/m2
06:36 15.6 °C 15.1 °C 1012.8 hPa NW 3.5 km/h 7.2 km/h 97% 0.0 mm 0 W/m2
06:41 15.5 °C 15.1 °C 1012.4 hPa NW 3.5 km/h 7.2 km/h 97% 0.0 mm 0 W/m2
06:46 15.5 °C 15.1 °C 1012.4 hPa NNW 6.1 km/h 7.2 km/h 97% 0.0 mm 0 W/m2
06:51 15.5 °C 15.1 °C 1012.8 hPa NNW 5.0 km/h 8.7 km/h 97% 0.0 mm 0 W/m2
06:56 15.5 °C 15.2 °C 1012.8 hPa NNW 5.0 km/h 9.7 km/h 98% 0.0 mm 0 W/m2
07:01 15.5 °C 15.2 °C 1012.8 hPa North 3.5 km/h 9.7 km/h 98% 0.0 mm 0 W/m2
07:06 15.5 °C 15.2 °C 1012.8 hPa North 5.0 km/h 7.2 km/h 98% 0.0 mm 0 W/m2
07:11 15.5 °C 15.1 °C 1012.8 hPa NNW 2.6 km/h 7.2 km/h 97% 0.0 mm 0 W/m2
07:16 15.4 °C 14.9 °C 1012.8 hPa NNW 5.0 km/h 7.2 km/h 97% 0.0 mm 0 W/m2
07:21 15.3 °C 14.8 °C 1012.8 hPa NW 5.0 km/h 8.7 km/h 97% 0.0 mm 0 W/m2
07:26 15.2 °C 14.7 °C 1012.8 hPa NNW 7.2 km/h 9.7 km/h 97% 0.0 mm 0 W/m2
07:31 15.3 °C 14.8 °C 1012.8 hPa NNW 5.0 km/h 9.7 km/h 97% 0.0 mm 0 W/m2
07:36 15.2 °C 14.7 °C 1012.8 hPa NW 3.5 km/h 9.7 km/h 97% 0.0 mm 0 W/m2
07:41 15.1 °C 14.6 °C 1012.8 hPa NW 1.1 km/h 8.7 km/h 97% 0.0 mm 0 W/m2
07:46 15.0 °C 14.6 °C 1012.4 hPa Calm   6.1 km/h 97% 0.0 mm 0 W/m2
07:51 14.8 °C 14.5 °C 1012.8 hPa NW 3.5 km/h 6.1 km/h 98% 0.0 mm 0 W/m2
07:56 14.8 °C 14.5 °C 1012.8 hPa NW 5.0 km/h 8.7 km/h 98% 0.0 mm 0 W/m2
08:01 14.8 °C 14.5 °C 1012.4 hPa NW 3.5 km/h 8.7 km/h 98% 0.0 mm 0 W/m2
08:06 14.8 °C 14.5 °C 1012.4 hPa NW 1.1 km/h 7.2 km/h 98% 0.0 mm 0 W/m2
08:11 14.8 °C 14.5 °C 1012.8 hPa NNW 3.5 km/h 6.1 km/h 98% 0.0 mm 0 W/m2
08:16 14.8 °C 14.5 °C 1012.1 hPa North 5.0 km/h 8.7 km/h 98% 0.0 mm 0 W/m2
08:21 14.8 °C 14.7 °C 1012.4 hPa NNW 5.0 km/h 8.7 km/h 99% 0.0 mm 0 W/m2
08:26 14.9 °C 14.8 °C 1012.4 hPa NNW 5.0 km/h 8.7 km/h 99% 0.0 mm 0 W/m2
08:31 14.9 °C 14.8 °C 1012.4 hPa NNW 6.1 km/h 7.2 km/h 99% 0.0 mm 0 W/m2
08:36 15.0 °C 14.7 °C 1012.4 hPa NNW 6.1 km/h 8.7 km/h 98% 0.0 mm 0 W/m2
08:41 15.0 °C 14.7 °C 1012.4 hPa NW 1.1 km/h 8.7 km/h 98% 0.0 mm 0 W/m2
08:46 15.0 °C 14.6 °C 1012.4 hPa NW 2.6 km/h 8.7 km/h 97% 0.0 mm 0 W/m2
08:51 15.0 °C 14.6 °C 1012.1 hPa NW 6.1 km/h 7.2 km/h 97% 0.0 mm 0 W/m2
08:56 14.7 °C 14.4 °C 1012.4 hPa NW 3.5 km/h 7.2 km/h 98% 0.0 mm 0 W/m2
09:01 14.6 °C 14.3 °C 1012.1 hPa WNW 3.5 km/h 7.2 km/h 98% 0.0 mm 0 W/m2
09:06 14.5 °C 14.2 °C 1012.1 hPa NW 2.6 km/h 6.1 km/h 98% 0.0 mm 0 W/m2
09:11 14.4 °C 14.1 °C 1012.1 hPa NW 5.0 km/h 7.2 km/h 98% 0.0 mm 0 W/m2
09:14 14.3 °C 14.0 °C 1012.1 hPa NW 2.6 km/h 7.2 km/h 98% 0.0 mm 0 W/m2
09:19 14.3 °C 14.0 °C 1012.4 hPa NW 5.0 km/h 8.7 km/h 98% 0.0 mm 0 W/m2
09:24 14.3 °C 14.0 °C 1012.4 hPa NNW 3.5 km/h 8.7 km/h 98% 0.0 mm 0 W/m2
09:29 14.3 °C 14.0 °C 1012.4 hPa NW 2.6 km/h 8.7 km/h 98% 0.0 mm 0 W/m2
09:34 14.3 °C 14.2 °C 1012.4 hPa NW 2.6 km/h 6.1 km/h 99% 0.0 mm 0 W/m2
09:39 14.2 °C 14.1 °C 1012.4 hPa Calm   6.1 km/h 99% 0.0 mm 0 W/m2
09:44 14.2 °C 14.1 °C 1012.4 hPa Calm   6.1 km/h 99% 0.0 mm 0 W/m2
09:49 14.1 °C 13.9 °C 1012.4 hPa NNW 2.6 km/h 3.5 km/h 99% 0.0 mm 0 W/m2
09:54 14.0 °C 13.8 °C 1012.4 hPa Calm   6.1 km/h 99% 0.0 mm 0 W/m2
09:59 14.0 °C 13.8 °C 1012.4 hPa Calm   6.1 km/h 99% 0.0 mm 0 W/m2
10:05 13.9 °C 13.8 °C 1012.4 hPa Calm   3.5 km/h 99% 0.0 mm 0 W/m2
10:10 13.9 °C 13.8 °C 1012.4 hPa Calm   2.6 km/h 99% 0.0 mm 0 W/m2
10:15 13.9 °C 13.8 °C 1012.4 hPa WNW 1.1 km/h 3.5 km/h 99% 0.0 mm 0 W/m2
10:20 13.9 °C 13.8 °C 1012.4 hPa WNW 1.1 km/h 3.5 km/h 99% 0.0 mm 0 W/m2
10:25 13.8 °C 13.7 °C 1012.4 hPa NW 1.1 km/h 5.0 km/h 99% 0.0 mm 0 W/m2
10:30 13.7 °C 13.6 °C 1012.1 hPa NNW 2.6 km/h 5.0 km/h 99% 0.0 mm 0 W/m2
10:35 13.7 °C 13.6 °C 1012.4 hPa NNW 2.6 km/h 3.5 km/h 99% 0.0 mm 0 W/m2
10:40 13.6 °C 13.4 °C 1012.4 hPa Calm   3.5 km/h 99% 0.0 mm 0 W/m2
10:45 13.6 °C 13.4 °C 1012.4 hPa NNW 2.6 km/h 5.0 km/h 99% 0.0 mm 0 W/m2
10:50 13.6 °C 13.4 °C 1012.4 hPa NNW 2.6 km/h 6.1 km/h 99% 0.0 mm 0 W/m2
10:55 13.6 °C 13.4 °C 1012.4 hPa NNW 1.1 km/h 6.1 km/h 99% 0.0 mm 0 W/m2
11:00 13.5 °C 13.3 °C 1012.1 hPa NNW 1.1 km/h 5.0 km/h 99% 0.0 mm 0 W/m2
11:05 13.5 °C 13.3 °C 1012.1 hPa NNW 2.6 km/h 6.1 km/h 99% 0.0 mm 0 W/m2
11:10 13.4 °C 13.3 °C 1012.1 hPa NNW 2.6 km/h 6.1 km/h 99% 0.0 mm 0 W/m2
11:15 13.4 °C 13.3 °C 1011.7 hPa NNW 2.6 km/h 6.1 km/h 99% 0.0 mm 0 W/m2
11:20 13.3 °C 13.2 °C 1011.7 hPa Calm   7.2 km/h 99% 0.0 mm 0 W/m2
11:26 13.2 °C 13.1 °C 1011.7 hPa NNW 3.5 km/h 7.2 km/h 99% 0.0 mm 0 W/m2
11:31 13.2 °C 13.1 °C 1012.1 hPa Calm   6.1 km/h 99% 0.0 mm 0 W/m2
11:36 13.1 °C 12.9 °C 1011.7 hPa Calm   8.7 km/h 99% 0.0 mm 0 W/m2
11:41 13.1 °C 12.9 °C 1012.1 hPa NW 6.1 km/h 8.7 km/h 99% 0.0 mm 0 W/m2
11:46 13.1 °C 12.9 °C 1012.1 hPa NW 3.5 km/h 12.2 km/h 99% 0.0 mm 0 W/m2
11:51 13.2 °C 13.1 °C 1012.1 hPa NW 3.5 km/h 12.2 km/h 99% 0.0 mm 0 W/m2
11:56 13.2 °C 13.1 °C 1012.1 hPa WNW 2.6 km/h 9.7 km/h 99% 0.0 mm 0 W/m2
12:01 13.2 °C 13.1 °C 1012.1 hPa NW 2.6 km/h 9.7 km/h 99% 0.0 mm 0 W/m2
12:06 13.2 °C 13.1 °C 1012.1 hPa NNW 2.6 km/h 6.1 km/h 99% 0.0 mm 0 W/m2
12:11 13.1 °C 12.9 °C 1011.7 hPa NNW 2.6 km/h 6.1 km/h 99% 0.0 mm 0 W/m2
12:12 13.1 °C 12.9 °C 1011.7 hPa North 2.6 km/h 6.1 km/h 99% 0.0 mm 0 W/m2
12:17 13.1 °C 12.9 °C 1011.7 hPa NNW 1.1 km/h 5.0 km/h 99% 0.0 mm 0 W/m2
12:22 13.1 °C 12.9 °C 1012.1 hPa Calm   5.0 km/h 99% 0.0 mm 0 W/m2
12:28 13.0 °C 12.8 °C 1012.1 hPa Calm   3.5 km/h 99% 0.0 mm 0 W/m2
12:33 12.9 °C 12.4 °C 1012.1 hPa Calm   2.6 km/h 97% 0.0 mm 0 W/m2
12:38 12.9 °C 12.4 °C 1012.1 hPa Calm   2.6 km/h 97% 0.0 mm 0 W/m2
12:43 12.8 °C 12.3 °C 1012.1 hPa Calm   2.6 km/h 97% 0.0 mm 0 W/m2
12:48 12.8 °C 12.3 °C 1012.1 hPa NNW 3.5 km/h 5.0 km/h 97% 0.0 mm 0 W/m2
12:53 12.6 °C 12.2 °C 1012.1 hPa NNW 3.5 km/h 6.1 km/h 97% 0.0 mm 1 W/m2
12:58 12.6 °C 12.2 °C 1012.1 hPa NNW 3.5 km/h 6.1 km/h 97% 0.0 mm 4 W/m2
13:03 12.5 °C 12.1 °C 1012.1 hPa NNW 5.0 km/h 6.1 km/h 97% 0.0 mm 7 W/m2
13:08 12.5 °C 12.1 °C 1012.1 hPa Calm   6.1 km/h 97% 0.0 mm 12 W/m2
13:13 12.5 °C 12.1 °C 1012.4 hPa NNW 1.1 km/h 3.5 km/h 97% 0.0 mm 16 W/m2
13:18 12.4 °C 11.9 °C 1012.4 hPa Calm   5.0 km/h 97% 0.0 mm 21 W/m2
13:23 12.4 °C 11.9 °C 1012.4 hPa Calm   5.0 km/h 97% 0.0 mm 57 W/m2
13:28 12.8 °C 12.3 °C 1012.4 hPa NW 2.6 km/h 3.5 km/h 97% 0.0 mm 85 W/m2
13:33 13.0 °C 12.8 °C 1012.4 hPa NW 5.0 km/h 7.2 km/h 99% 0.0 mm 90 W/m2
13:38 13.2 °C 13.1 °C 1012.1 hPa NNW 3.5 km/h 7.2 km/h 99% 0.0 mm 99 W/m2
13:43 13.5 °C 13.3 °C 1012.1 hPa NNW 1.1 km/h 7.2 km/h 99% 0.0 mm 110 W/m2
13:48 13.7 °C 13.6 °C 1012.1 hPa NNW 3.5 km/h 7.2 km/h 99% 0.0 mm 124 W/m2
13:53 14.1 °C 13.9 °C 1012.1 hPa North 3.5 km/h 7.2 km/h 99% 0.0 mm 133 W/m2
13:58 14.4 °C 14.3 °C 1012.4 hPa NNW 2.6 km/h 7.2 km/h 99% 0.0 mm 142 W/m2
14:15 14.6 °C 13.8 °C 1012.8 hPa NW 8.7 km/h 11.1 km/h 95% 0.0 mm 112 W/m2
14:20 14.4 °C 13.4 °C 1012.8 hPa NNW 5.0 km/h 11.1 km/h 94% 0.0 mm 121 W/m2
14:25 14.6 °C 13.7 °C 1012.8 hPa NNW 6.1 km/h 9.7 km/h 94% 0.0 mm 191 W/m2
14:30 14.9 °C 13.9 °C 1012.8 hPa NW 6.1 km/h 9.7 km/h 94% 0.0 mm 182 W/m2
14:35 15.2 °C 14.1 °C 1012.4 hPa NNW 7.2 km/h 9.7 km/h 93% 0.0 mm 225 W/m2
14:40 15.7 °C 14.2 °C 1012.4 hPa NNW 6.1 km/h 9.7 km/h 91% 0.0 mm 242 W/m2
14:45 16.0 °C 14.0 °C 1012.8 hPa NNW 6.1 km/h 12.2 km/h 88% 0.0 mm 276 W/m2
14:50 16.3 °C 13.9 °C 1012.8 hPa NNW 6.1 km/h 12.2 km/h 86% 0.0 mm 268 W/m2
14:55 16.7 °C 14.2 °C 1012.8 hPa NNW 5.0 km/h 14.8 km/h 85% 0.0 mm 281 W/m2
15:00 17.0 °C 14.1 °C 1012.8 hPa NNW 8.7 km/h 14.8 km/h 83% 0.0 mm 300 W/m2
15:05 16.9 °C 14.0 °C 1012.8 hPa NNW 7.2 km/h 14.8 km/h 83% 0.0 mm 265 W/m2
15:10 17.0 °C 13.9 °C 1012.8 hPa North 5.0 km/h 13.4 km/h 82% 0.0 mm 267 W/m2
15:15 17.3 °C 14.0 °C 1012.8 hPa NNW 5.0 km/h 13.4 km/h 81% 0.0 mm 315 W/m2
15:20 17.8 °C 14.1 °C 1012.4 hPa NNW 5.0 km/h 12.2 km/h 79% 0.0 mm 322 W/m2
15:25 18.3 °C 14.4 °C 1012.8 hPa NNW 8.7 km/h 12.2 km/h 78% 0.0 mm 333 W/m2
15:30 18.6 °C 14.5 °C 1012.8 hPa NNW 8.7 km/h 12.2 km/h 77% 0.0 mm 275 W/m2
15:35 19.0 °C 14.5 °C 1012.8 hPa NNW 2.6 km/h 12.2 km/h 75% 0.0 mm 341 W/m2
15:40 19.3 °C 14.1 °C 1012.8 hPa NNW 3.5 km/h 11.1 km/h 72% 0.0 mm 358 W/m2
15:45 19.4 °C 14.2 °C 1012.8 hPa NNW 3.5 km/h 11.1 km/h 72% 0.0 mm 367 W/m2
15:50 19.7 °C 14.1 °C 1012.8 hPa North 2.6 km/h 9.7 km/h 70% 0.0 mm 372 W/m2
15:55 20.4 °C 14.6 °C 1012.8 hPa North 3.5 km/h 9.7 km/h 69% 0.0 mm 400 W/m2
16:00 21.2 °C 14.6 °C 1012.8 hPa Calm   6.1 km/h 66% 0.0 mm 417 W/m2
16:05 21.6 °C 14.5 °C 1012.8 hPa Calm   7.2 km/h 64% 0.0 mm 429 W/m2
16:10 22.0 °C 14.2 °C 1012.8 hPa NNW 1.1 km/h 7.2 km/h 61% 0.0 mm 451 W/m2
16:15 22.9 °C 15.0 °C 1013.1 hPa Calm   5.0 km/h 61% 0.0 mm 463 W/m2
16:20 24.0 °C 14.7 °C 1013.1 hPa SE 2.6 km/h 6.1 km/h 56% 0.0 mm 426 W/m2
16:25 23.8 °C 14.5 °C 1012.8 hPa South 3.5 km/h 7.2 km/h 56% 0.0 mm 283 W/m2
16:41 22.1 °C 14.2 °C 1012.8 hPa South 6.1 km/h 8.7 km/h 61% 0.0 mm 301 W/m2
16:46 21.9 °C 14.8 °C 1012.8 hPa South 1.1 km/h 8.7 km/h 64% 0.0 mm 434 W/m2
17:06 22.3 °C 14.9 °C 1012.8 hPa SW 6.1 km/h 11.1 km/h 63% 0.0 mm 383 W/m2
17:11 22.0 °C 14.7 °C 1012.8 hPa SSW 5.0 km/h 12.2 km/h 63% 0.0 mm 584 W/m2
17:16 22.3 °C 15.2 °C 1012.8 hPa SSW 5.0 km/h 12.2 km/h 64% 0.0 mm 604 W/m2
17:21 22.2 °C 14.8 °C 1012.8 hPa South 9.7 km/h 14.8 km/h 63% 0.0 mm 627 W/m2
17:26 22.0 °C 15.1 °C 1012.8 hPa SSW 7.2 km/h 14.8 km/h 65% 0.0 mm 678 W/m2
17:31 21.8 °C 15.2 °C 1012.8 hPa SSW 7.2 km/h 12.2 km/h 66% 0.0 mm 629 W/m2
17:36 21.5 °C 14.9 °C 1012.8 hPa South 5.0 km/h 13.4 km/h 66% 0.0 mm 780 W/m2
17:41 21.9 °C 15.3 °C 1012.8 hPa South 7.2 km/h 13.4 km/h 66% 0.0 mm 311 W/m2
17:46 21.9 °C 15.5 °C 1012.8 hPa South 5.0 km/h 13.4 km/h 67% 0.0 mm 743 W/m2
17:51 21.8 °C 15.2 °C 1012.8 hPa South 5.0 km/h 14.8 km/h 66% 0.0 mm 743 W/m2
17:56 21.7 °C 15.3 °C 1012.4 hPa South 5.0 km/h 14.8 km/h 67% 0.0 mm 782 W/m2
18:01 21.6 °C 15.2 °C 1012.4 hPa South 8.7 km/h 13.4 km/h 67% 0.0 mm 862 W/m2
18:06 21.7 °C 15.6 °C 1012.4 hPa South 2.6 km/h 13.4 km/h 68% 0.0 mm 798 W/m2
18:11 22.1 °C 15.2 °C 1012.1 hPa South 6.1 km/h 12.2 km/h 65% 0.0 mm 695 W/m2
18:16 22.1 °C 15.4 °C 1012.1 hPa South 7.2 km/h 12.2 km/h 66% 0.0 mm 778 W/m2
18:34 22.2 °C 15.3 °C 1012.1 hPa SSW 8.7 km/h 14.8 km/h 65% 0.0 mm 751 W/m2
18:39 22.5 °C 15.8 °C 1012.1 hPa SSW 6.1 km/h 14.8 km/h 66% 0.0 mm 766 W/m2
18:45 22.6 °C 15.7 °C 1012.4 hPa SSW 9.7 km/h 15.8 km/h 65% 0.0 mm 798 W/m2
18:50 22.1 °C 15.4 °C 1012.1 hPa South 9.7 km/h 15.8 km/h 66% 0.0 mm 830 W/m2
18:55 22.0 °C 15.6 °C 1011.7 hPa South 6.1 km/h 14.8 km/h 67% 0.0 mm 856 W/m2
19:00 21.9 °C 15.7 °C 1011.7 hPa SSW 11.1 km/h 15.8 km/h 68% 0.0 mm 854 W/m2
19:05 22.0 °C 15.8 °C 1011.7 hPa SSW 6.1 km/h 15.8 km/h 68% 0.0 mm 849 W/m2
19:10 22.2 °C 15.8 °C 1011.7 hPa SSW 8.7 km/h 14.8 km/h 67% 0.0 mm 863 W/m2
19:15 22.3 °C 16.1 °C 1011.7 hPa South 12.2 km/h 15.8 km/h 68% 0.0 mm 873 W/m2
19:20 22.2 °C 16.3 °C 1011.7 hPa South 7.2 km/h 17.2 km/h 69% 0.0 mm 866 W/m2
19:25 22.3 °C 15.9 °C 1012.1 hPa South 13.4 km/h 17.2 km/h 67% 0.0 mm 868 W/m2
19:30 22.2 °C 16.3 °C 1011.7 hPa South 3.5 km/h 15.8 km/h 69% 0.0 mm 869 W/m2
19:35 22.9 °C 16.4 °C 1011.7 hPa South 7.2 km/h 14.8 km/h 67% 0.0 mm 876 W/m2
19:40 22.8 °C 16.6 °C 1011.7 hPa SSE 8.7 km/h 15.8 km/h 68% 0.0 mm 881 W/m2
19:45 22.9 °C 16.2 °C 1011.4 hPa SSE 6.1 km/h 15.8 km/h 66% 0.0 mm 878 W/m2
19:50 23.1 °C 16.7 °C 1011.7 hPa SSE 6.1 km/h 14.8 km/h 67% 0.0 mm 874 W/m2
19:55 23.2 °C 16.5 °C 1011.4 hPa SE 6.1 km/h 13.4 km/h 66% 0.0 mm 867 W/m2
20:00 23.1 °C 16.4 °C 1011.4 hPa SE 3.5 km/h 17.2 km/h 66% 0.0 mm 860 W/m2
20:05 23.5 °C 16.6 °C 1011.4 hPa SSE 8.7 km/h 17.2 km/h 65% 0.0 mm 836 W/m2
20:10 23.0 °C 16.3 °C 1011.4 hPa South 8.7 km/h 15.8 km/h 66% 0.0 mm 842 W/m2
20:15 22.9 °C 16.0 °C 1011.4 hPa SSE 5.0 km/h 15.8 km/h 65% 0.0 mm 822 W/m2
20:20 22.8 °C 16.4 °C 1011.1 hPa SSE 7.2 km/h 15.8 km/h 67% 0.0 mm 760 W/m2
20:25 23.2 °C 16.8 °C 1011.4 hPa SSE 6.1 km/h 15.8 km/h 67% 0.0 mm 822 W/m2
20:30 23.0 °C 16.6 °C 1011.4 hPa SSE 6.1 km/h 18.3 km/h 67% 0.0 mm 582 W/m2
20:35 23.5 °C 17.1 °C 1011.4 hPa South 7.2 km/h 18.3 km/h 67% 0.0 mm 804 W/m2
20:40 23.4 °C 16.9 °C 1011.4 hPa SSE 12.2 km/h 18.3 km/h 67% 0.0 mm 775 W/m2
20:45 23.1 °C 16.9 °C 1011.4 hPa SSE 5.0 km/h 18.3 km/h 68% 0.0 mm 111 W/m2
20:50 23.3 °C 17.1 °C 1011.1 hPa SSE 8.7 km/h 18.3 km/h 68% 0.0 mm 570 W/m2
20:55 23.1 °C 16.7 °C 1011.1 hPa SSE 13.4 km/h 19.5 km/h 67% 0.0 mm 711 W/m2
21:00 22.8 °C 16.8 °C 1011.1 hPa SSE 3.5 km/h 19.5 km/h 69% 0.0 mm 729 W/m2
21:05 23.1 °C 16.7 °C 1011.1 hPa South 8.7 km/h 20.9 km/h 67% 0.0 mm 624 W/m2
21:10 22.9 °C 16.4 °C 1011.1 hPa South 8.7 km/h 20.9 km/h 67% 0.0 mm 631 W/m2
21:15 22.9 °C 16.0 °C 1010.7 hPa South 13.4 km/h 20.9 km/h 65% 0.0 mm 681 W/m2
21:20 23.4 °C 16.0 °C 1010.7 hPa SSE 7.2 km/h 18.3 km/h 63% 0.0 mm 677 W/m2
21:25 23.7 °C 15.8 °C 1010.7 hPa SE 7.2 km/h 17.2 km/h 61% 0.0 mm 637 W/m2
21:30 23.5 °C 16.1 °C 1010.7 hPa SSE 2.6 km/h 15.8 km/h 63% 0.0 mm 292 W/m2
21:35 22.6 °C 15.4 °C 1010.7 hPa SSE 7.2 km/h 14.8 km/h 64% 0.0 mm 313 W/m2
21:40 22.6 °C 16.2 °C 1010.7 hPa South 1.1 km/h 14.8 km/h 67% 0.0 mm 591 W/m2
21:45 23.1 °C 16.4 °C 1010.7 hPa SSE 8.7 km/h 13.4 km/h 66% 0.0 mm 305 W/m2
21:50 22.9 °C 16.0 °C 1010.7 hPa SE 2.6 km/h 13.4 km/h 65% 0.0 mm 384 W/m2
21:55 23.2 °C 16.5 °C 1010.7 hPa SSE 6.1 km/h 13.4 km/h 66% 0.0 mm 573 W/m2
22:00 24.0 °C 16.8 °C 1010.7 hPa Calm   13.4 km/h 64% 0.0 mm 606 W/m2
22:05 24.4 °C 16.7 °C 1010.4 hPa Calm   13.4 km/h 62% 0.0 mm 376 W/m2
22:10 24.0 °C 16.8 °C 1010.7 hPa SSE 1.1 km/h 13.4 km/h 64% 0.0 mm 175 W/m2
22:15 23.0 °C 16.6 °C 1010.4 hPa Calm   13.4 km/h 67% 0.0 mm 258 W/m2
22:20 23.1 °C 16.9 °C 1010.4 hPa SSE 3.5 km/h 13.4 km/h 68% 0.0 mm 214 W/m2
22:25 22.9 °C 16.9 °C 1010.4 hPa SSE 3.5 km/h 11.1 km/h 69% 0.0 mm 192 W/m2
22:30 22.6 °C 16.9 °C 1010.4 hPa SE 2.6 km/h 11.1 km/h 70% 0.0 mm 200 W/m2
22:35 22.3 °C 16.8 °C 1010.4 hPa SE 6.1 km/h 11.1 km/h 71% 0.0 mm 263 W/m2
22:40 22.6 °C 17.1 °C 1010.4 hPa Calm   9.7 km/h 71% 0.0 mm 253 W/m2
22:45 22.9 °C 17.4 °C 1010.4 hPa ESE 1.1 km/h 9.7 km/h 71% 0.0 mm 255 W/m2
22:50 23.1 °C 17.1 °C 1010.4 hPa SE 1.1 km/h 7.2 km/h 69% 0.0 mm 292 W/m2
22:55 22.9 °C 17.2 °C 1010.4 hPa SSE 3.5 km/h 9.7 km/h 70% 0.0 mm 248 W/m2
23:00 22.7 °C 16.9 °C 1010.4 hPa SSE 5.0 km/h 9.7 km/h 70% 0.0 mm 329 W/m2
23:05 23.0 °C 17.3 °C 1010.4 hPa Calm   11.1 km/h 70% 0.0 mm 389 W/m2
23:10 23.7 °C 17.4 °C 1010.4 hPa Calm   11.1 km/h 68% 0.0 mm 278 W/m2
23:15 23.7 °C 17.2 °C 1010.4 hPa South 3.5 km/h 9.7 km/h 67% 0.0 mm 175 W/m2
23:20 23.0 °C 17.0 °C 1010.4 hPa Calm   8.7 km/h 69% 0.0 mm 132 W/m2
23:25 22.5 °C 16.6 °C 1010.0 hPa Calm   6.1 km/h 69% 0.0 mm 140 W/m2
23:30 22.3 °C 16.8 °C 1010.0 hPa Calm   6.1 km/h 71% 0.0 mm 140 W/m2
23:35 22.3 °C 17.2 °C 1010.4 hPa SE 3.5 km/h 6.1 km/h 73% 0.0 mm 147 W/m2
23:40 22.2 °C 17.2 °C 1010.4 hPa Calm   6.1 km/h 73% 0.0 mm 169 W/m2
23:45 22.4 °C 17.3 °C 1010.4 hPa Calm   2.6 km/h 73% 0.0 mm 140 W/m2
23:50 22.2 °C 16.7 °C 1010.4 hPa Calm   2.6 km/h 71% 0.0 mm 146 W/m2
23:55 22.3 °C 17.0 °C 1010.4 hPa Calm   3.5 km/h 72% 0.0 mm 138 W/m2
Northern Hawkes Bay. New Zealand Historic Data
Compliments of Weather Underground - 2 mb